الصفحة الرئيسية
METAR-TAF:

METAR-TAF

مطار :

Roswell International Air Center

روزويل, نيومكسيكو, الولايات المتحدة

دائرة عرض: 33-18-29N, خط طول: 104-30-28W, ارتفاع: 1118 متر

مراقبة الطقس الحالي

تاريخ ووقت الإصدار 36 دقيقة قبل الساعة 02:51UTC
ريح 6 عقدة من الغرب/الشمال الغربي
درجة الحرارة 9°درجة مئوية
الرطوبة 66%
ضغط 1018 hPa
الرؤية: 16.1 كم
سماء صافية

METAR: KROW 230251Z 30006KT 10SM CLR 09/03 A3006 RMK AO2 SLP161 T00890028 51013

زمن: 20:27 (03:27 UTC)

توقعات

تاريخ ووقت الإصدار 3ساعات و 51 دقيقة قبل الساعة 23:36UTC
التوقعات صالحة من23 الساعة 00 UTC إلى 23 الساعة 24 UTC
ريح 8 عقدة من الجنوب/الجنوب الغربي
الرؤية: 10 كم
غيوم قليلة على ارتفاع 6000 قدم
من 23 الساعة 0800 UTC
ريح 4 عقدةمن اتجاهات متغيرة
الرؤية: 10 كم
سماء صافية

TAF: KROW 222336Z 2300/2324 20008KT P6SM FEW060 FM230800 VRB04KT P6SM SKC

أرصاد الطقس والتوقعات من أكثر من 4000 مطار (تقارير الطقس للمطار METAR والتنبؤ بالطقس بالمطارTAF).

المحطات المتاحة هي النقط الصفراء والحمراء على الخريطة.

حرك المؤشر فوق النقطة لمعرفة اسم المحطة.

ثم انقر لمعرفة أرصاد وتوقعات الطقس.

لتغيير الخارطة: اضغط على الأزرار الخضراء مع رمز الصليب الأسود للتكبير. على الزر الأخضر مع شرطة للتصغير، أو على الأسهم الخضراء للخرائط المجاورة.


METAR-TAF: